createdAt,value
2018-12-24T00:01:03.619Z,101462.67
2018-12-24T00:03:32.533Z,101475.38
2018-12-24T00:06:01.443Z,101467.23
2018-12-24T00:08:30.380Z,101465.02
2018-12-24T00:10:59.275Z,101471.08
2018-12-24T00:13:28.188Z,101481.30
2018-12-24T00:15:57.062Z,101482.27
2018-12-24T00:18:25.956Z,101487.14
2018-12-24T00:20:54.819Z,101497.28
2018-12-24T00:23:23.712Z,101502.47
2018-12-24T00:25:52.621Z,101499.56
2018-12-24T00:28:21.517Z,101505.69
2018-12-24T00:30:50.398Z,101498.44
2018-12-24T00:33:19.251Z,101511.66
2018-12-24T00:35:48.121Z,101511.44
2018-12-24T00:38:16.997Z,101517.48
2018-12-24T00:40:45.887Z,101517.68
2018-12-24T00:43:14.765Z,101527.17
2018-12-24T00:45:43.718Z,101533.52
2018-12-24T00:48:12.595Z,101541.84
2018-12-24T00:50:41.469Z,101546.75
2018-12-24T00:53:10.342Z,101553.22
2018-12-24T00:55:39.205Z,101557.75
2018-12-24T00:58:08.151Z,101563.86
2018-12-24T01:00:37.048Z,101570.72
2018-12-24T01:03:05.994Z,101575.36
2018-12-24T01:05:34.911Z,101574.71
2018-12-24T01:08:03.775Z,101582.48
2018-12-24T01:10:32.665Z,101587.73
2018-12-24T01:13:01.557Z,101596.48
2018-12-24T01:15:30.442Z,101594.58
2018-12-24T01:17:59.320Z,101598.62
2018-12-24T01:20:28.188Z,101615.64
2018-12-24T01:22:57.075Z,101618.91
2018-12-24T01:25:25.977Z,101628.59
2018-12-24T01:27:54.882Z,101631.05
2018-12-24T01:30:23.777Z,101627.39
2018-12-24T01:32:52.647Z,101630.33
2018-12-24T01:35:21.549Z,101637.56
2018-12-24T01:37:50.401Z,101644.05
2018-12-24T01:40:19.309Z,101649.54
2018-12-24T01:42:48.207Z,101658.11
2018-12-24T01:45:17.125Z,101668.80
2018-12-24T01:47:45.975Z,101672.59
2018-12-24T01:50:14.874Z,101676.38
2018-12-24T01:52:43.770Z,101681.87
2018-12-24T01:55:12.707Z,101685.50
2018-12-24T01:57:41.582Z,101685.98
2018-12-24T02:00:10.486Z,101693.98
2018-12-24T02:02:39.406Z,101698.61
2018-12-24T02:05:08.371Z,101708.53
2018-12-24T02:07:37.258Z,101710.75
2018-12-24T02:10:06.136Z,101708.33
2018-12-24T02:12:42.161Z,101715.08
2018-12-24T02:15:03.902Z,101722.97
2018-12-24T02:17:32.788Z,101729.14
2018-12-24T02:20:01.651Z,101725.70
2018-12-24T02:22:30.539Z,101727.20
2018-12-24T02:24:59.400Z,101724.97
2018-12-24T02:27:28.320Z,101727.79
2018-12-24T02:29:57.198Z,101733.31
2018-12-24T02:32:26.095Z,101735.37
2018-12-24T02:34:54.964Z,101739.92
2018-12-24T02:37:23.870Z,101750.44
2018-12-24T02:39:52.750Z,101754.20
2018-12-24T02:42:21.602Z,101754.03
2018-12-24T02:44:50.518Z,101756.44
2018-12-24T02:47:19.396Z,101761.89
2018-12-24T02:49:48.298Z,101769.80
2018-12-24T02:52:17.180Z,101771.03
2018-12-24T02:54:46.079Z,101770.03
2018-12-24T02:57:14.968Z,101777.53
2018-12-24T02:59:43.878Z,101789.22
2018-12-24T03:02:12.746Z,101802.69
2018-12-24T03:04:41.637Z,101808.86
2018-12-24T03:07:10.531Z,101812.98
2018-12-24T03:09:39.407Z,101818.03
2018-12-24T03:12:08.297Z,101823.03
2018-12-24T03:14:37.200Z,101829.70
2018-12-24T03:17:06.112Z,101826.75
2018-12-24T03:19:34.999Z,101832.15
2018-12-24T03:22:03.904Z,101839.67
2018-12-24T03:24:32.763Z,101844.66
2018-12-24T03:27:01.665Z,101849.45
2018-12-24T03:29:30.547Z,101859.23
2018-12-24T03:31:59.444Z,101860.23
2018-12-24T03:34:28.391Z,101860.59
2018-12-24T03:36:57.270Z,101868.65
2018-12-24T03:39:26.135Z,101873.63
2018-12-24T03:41:55.111Z,101868.33
2018-12-24T03:44:24.029Z,101867.06
2018-12-24T03:46:52.823Z,101878.16
2018-12-24T03:49:21.750Z,101877.67
2018-12-24T03:51:50.613Z,101884.03
2018-12-24T03:54:19.477Z,101885.47
2018-12-24T03:56:48.391Z,101896.73
2018-12-24T03:59:17.272Z,101901.94
2018-12-24T04:01:46.182Z,101905.11
2018-12-24T04:04:15.084Z,101912.51
2018-12-24T04:06:44.012Z,101911.47
2018-12-24T04:09:12.923Z,101915.42
2018-12-24T04:11:41.849Z,101918.59
2018-12-24T04:14:10.710Z,101925.25
2018-12-24T04:16:39.626Z,101926.13
2018-12-24T04:19:08.504Z,101921.64
2018-12-24T04:21:37.401Z,101930.12
2018-12-24T04:24:06.425Z,101934.25
2018-12-24T04:26:35.269Z,101945.64
2018-12-24T04:29:04.221Z,101953.81
2018-12-24T04:31:33.148Z,101954.38
2018-12-24T04:34:02.046Z,101964.39
2018-12-24T04:36:31.077Z,101964.38
2018-12-24T04:38:59.975Z,101969.84
2018-12-24T04:41:28.913Z,101976.48
2018-12-24T04:43:59.175Z,101982.27
2018-12-24T04:46:26.701Z,101987.57
2018-12-24T04:48:55.584Z,102003.27
2018-12-24T04:51:24.447Z,101999.48
2018-12-24T04:53:53.353Z,102011.52
2018-12-24T04:56:22.210Z,102011.52
2018-12-24T04:58:51.099Z,102014.67
2018-12-24T05:01:19.972Z,102027.19
2018-12-24T05:03:48.871Z,102033.73
2018-12-24T05:06:17.738Z,102043.11
2018-12-24T05:08:46.642Z,102046.40
2018-12-24T05:11:15.542Z,102047.27
2018-12-24T05:13:44.435Z,102055.60
2018-12-24T05:16:13.324Z,102059.17
2018-12-24T05:18:42.216Z,102079.08
2018-12-24T05:21:11.106Z,102077.33
2018-12-24T05:23:39.996Z,102096.20
2018-12-24T05:26:08.890Z,102092.11
2018-12-24T05:28:37.794Z,102108.88
2018-12-24T05:31:06.716Z,102117.13
2018-12-24T05:33:35.612Z,102120.22
2018-12-24T05:36:04.553Z,102137.73
2018-12-24T05:38:33.434Z,102141.70
2018-12-24T05:41:02.341Z,102139.16
2018-12-24T05:43:31.222Z,102152.13
2018-12-24T05:46:00.136Z,102160.49
2018-12-24T05:48:29.061Z,102164.27
2018-12-24T05:50:57.976Z,102184.41
2018-12-24T05:53:26.873Z,102185.27
2018-12-24T05:55:55.763Z,102197.17
2018-12-24T05:58:24.656Z,102199.78
2018-12-24T06:00:53.518Z,102198.39
2018-12-24T06:03:22.421Z,102218.86
2018-12-24T06:05:51.299Z,102219.09
2018-12-24T06:08:20.211Z,102238.64
2018-12-24T06:10:49.099Z,102224.08
2018-12-24T06:13:18.000Z,102233.75
2018-12-24T06:15:46.889Z,102234.91
2018-12-24T06:18:15.890Z,102243.00
2018-12-24T06:20:44.780Z,102244.27
2018-12-24T06:23:13.668Z,102242.60
2018-12-24T06:25:42.555Z,102245.70
2018-12-24T06:28:11.450Z,102243.00
2018-12-24T06:30:40.323Z,102252.67
2018-12-24T06:33:09.293Z,102257.41
2018-12-24T06:35:38.190Z,102260.20
2018-12-24T06:38:07.128Z,102267.42
2018-12-24T06:40:36.019Z,102267.71
2018-12-24T06:43:04.986Z,102275.64
2018-12-24T06:45:33.850Z,102278.34
2018-12-24T06:48:02.767Z,102277.94
2018-12-24T06:50:31.673Z,102287.17
2018-12-24T06:53:00.589Z,102299.70
2018-12-24T06:55:29.444Z,102310.32
2018-12-24T06:57:58.338Z,102307.89
2018-12-24T07:00:27.229Z,102315.73
2018-12-24T07:02:56.157Z,102317.08
2018-12-24T07:05:25.026Z,102322.63
2018-12-24T07:07:53.992Z,102337.84
2018-12-24T07:10:22.898Z,102330.16
2018-12-24T07:12:51.784Z,102335.22
2018-12-24T07:15:20.689Z,102336.48
2018-12-24T07:17:49.587Z,102344.42
2018-12-24T07:20:18.467Z,102351.56
2018-12-24T07:22:47.363Z,102357.35
2018-12-24T07:25:16.228Z,102356.02
2018-12-24T07:27:45.159Z,102373.47
2018-12-24T07:30:14.007Z,102388.92
2018-12-24T07:32:42.897Z,102402.61
2018-12-24T07:35:11.808Z,102411.69
2018-12-24T07:37:40.679Z,102409.28
2018-12-24T07:40:09.621Z,102419.12
2018-12-24T07:42:38.495Z,102437.28
2018-12-24T07:45:07.492Z,102443.23
2018-12-24T07:47:36.376Z,102441.08
2018-12-24T07:50:06.018Z,102446.67
2018-12-24T07:52:34.886Z,102464.57
2018-12-24T07:55:03.788Z,102476.41
2018-12-24T07:57:32.669Z,102475.10
2018-12-24T08:00:01.535Z,102482.14
2018-12-24T08:02:30.568Z,102480.63
2018-12-24T08:04:59.474Z,102487.19
2018-12-24T08:07:28.353Z,102491.66
2018-12-24T08:09:57.264Z,102496.61
2018-12-24T08:12:26.156Z,102503.60
2018-12-24T08:14:55.054Z,102508.00
2018-12-24T08:17:24.268Z,102505.53
2018-12-24T08:19:53.172Z,102511.17
2018-12-24T08:22:22.025Z,102513.74
2018-12-24T08:24:50.909Z,102524.78
2018-12-24T08:27:19.783Z,102530.62
2018-12-24T08:29:48.735Z,102525.56
2018-12-24T08:32:17.599Z,102529.77
2018-12-24T08:34:46.534Z,102532.80
2018-12-24T08:37:15.422Z,102539.27
2018-12-24T08:39:44.312Z,102545.86
2018-12-24T08:42:13.192Z,102547.36
2018-12-24T08:44:42.228Z,102555.27
2018-12-24T08:47:10.961Z,102561.48
2018-12-24T08:49:39.892Z,102575.47
2018-12-24T08:52:08.897Z,102569.23
2018-12-24T08:54:37.779Z,102584.06
2018-12-24T08:57:06.804Z,102583.13
2018-12-24T08:59:35.650Z,102586.23
2018-12-24T09:02:04.666Z,102589.56
2018-12-24T09:04:33.466Z,102586.84
2018-12-24T09:07:02.358Z,102590.66
2018-12-24T09:09:31.244Z,102593.89
2018-12-24T09:12:00.106Z,102596.82
2018-12-24T09:14:29.016Z,102596.83
2018-12-24T09:16:57.949Z,102594.33
2018-12-24T09:19:26.838Z,102598.87
2018-12-24T09:21:55.738Z,102602.33
2018-12-24T09:24:24.617Z,102608.30
2018-12-24T09:26:53.533Z,102608.41
2018-12-24T09:29:22.465Z,102618.91
2018-12-24T09:31:51.347Z,102621.42
2018-12-24T09:34:20.238Z,102622.32
2018-12-24T09:36:49.143Z,102627.63
2018-12-24T09:39:18.068Z,102633.27
2018-12-24T09:41:46.867Z,102639.16
2018-12-24T09:44:15.777Z,102647.49
2018-12-24T09:46:44.677Z,102653.43
2018-12-24T09:49:13.567Z,102654.55
2018-12-24T09:51:42.564Z,102660.00
2018-12-24T09:54:11.637Z,102656.27
2018-12-24T09:56:40.643Z,102653.16
2018-12-24T09:59:09.737Z,102653.17
2018-12-24T10:01:38.705Z,102657.39
2018-12-24T10:04:29.700Z,102660.63
2018-12-24T10:07:06.790Z,102661.85
2018-12-24T10:09:35.684Z,102664.13
2018-12-24T10:12:04.569Z,102668.53
2018-12-24T10:14:33.586Z,102669.27
2018-12-24T10:17:02.415Z,102672.74
2018-12-24T10:19:31.274Z,102665.58
2018-12-24T10:22:00.203Z,102669.78
2018-12-24T10:24:29.072Z,102668.65
2018-12-24T10:26:58.168Z,102659.97
2018-12-24T10:29:27.055Z,102659.71
2018-12-24T10:31:55.966Z,102661.84
2018-12-24T10:34:25.185Z,102654.23
2018-12-24T10:36:54.003Z,102664.66
2018-12-24T10:39:22.874Z,102654.47
2018-12-24T10:41:51.768Z,102658.08
2018-12-24T10:44:20.681Z,102656.22
2018-12-24T10:46:49.587Z,102659.28
2018-12-24T10:49:18.488Z,102656.89
2018-12-24T10:51:47.456Z,102664.23
2018-12-24T10:54:16.296Z,102662.83
2018-12-24T10:56:45.162Z,102660.40
2018-12-24T10:59:14.066Z,102665.04
2018-12-24T11:01:44.715Z,102671.76
2018-12-24T11:04:11.831Z,102673.30
2018-12-24T11:06:40.740Z,102673.53
2018-12-24T11:09:09.745Z,102677.09
2018-12-24T11:11:39.188Z,102673.80
2018-12-24T11:14:08.128Z,102676.74
2018-12-24T11:16:37.008Z,102669.90
2018-12-24T11:19:05.948Z,102674.75
2018-12-24T11:21:34.832Z,102682.73
2018-12-24T11:24:03.712Z,102684.95
2018-12-24T11:26:32.635Z,102687.16
2018-12-24T11:29:01.502Z,102694.73
2018-12-24T11:31:30.406Z,102691.17
2018-12-24T11:33:59.297Z,102700.61
2018-12-24T11:36:28.199Z,102703.67
2018-12-24T11:38:57.068Z,102706.08
2018-12-24T11:41:25.929Z,102708.80
2018-12-24T11:43:54.813Z,102710.02
2018-12-24T11:46:26.553Z,102719.28
2018-12-24T11:48:55.467Z,102715.35
2018-12-24T11:51:24.369Z,102715.67
2018-12-24T11:53:53.279Z,102712.15
2018-12-24T11:56:22.338Z,102714.10
2018-12-24T11:58:51.232Z,102715.72
2018-12-24T12:01:20.105Z,102720.36
2018-12-24T12:03:49.020Z,102713.63
2018-12-24T12:06:19.915Z,102723.16
2018-12-24T12:08:46.868Z,102720.19
2018-12-24T12:11:15.760Z,102724.30
2018-12-24T12:13:44.663Z,102725.56
2018-12-24T12:16:13.553Z,102728.92
2018-12-24T12:18:42.498Z,102733.31
2018-12-24T12:21:11.370Z,102737.23
2018-12-24T12:23:40.281Z,102731.60
2018-12-24T12:26:09.215Z,102735.81
2018-12-24T12:28:38.128Z,102745.48
2018-12-24T12:31:07.198Z,102742.86
2018-12-24T12:33:36.143Z,102741.50
2018-12-24T12:36:05.135Z,102741.34
2018-12-24T12:38:34.013Z,102741.14
2018-12-24T12:41:02.988Z,102747.74
2018-12-24T12:43:31.849Z,102747.16
2018-12-24T12:46:00.736Z,102749.19
2018-12-24T12:48:29.642Z,102753.77
2018-12-24T12:50:58.538Z,102760.25
2018-12-24T12:53:27.453Z,102761.63
2018-12-24T12:55:56.342Z,102761.73
2018-12-24T12:58:25.224Z,102768.52
2018-12-24T13:00:54.108Z,102766.67
2018-12-24T13:03:23.023Z,102777.62
2018-12-24T13:05:51.893Z,102787.49
2018-12-24T13:08:20.808Z,102784.79
2018-12-24T13:10:49.687Z,102794.47
2018-12-24T13:13:20.071Z,102796.69
2018-12-24T13:15:48.952Z,102799.77
2018-12-24T13:18:17.842Z,102803.08
2018-12-24T13:20:46.727Z,102802.48
2018-12-24T13:23:15.619Z,102809.08
2018-12-24T13:25:44.531Z,102809.16
2018-12-24T13:28:13.402Z,102808.38
2018-12-24T13:30:42.294Z,102809.95
2018-12-24T13:33:11.145Z,102809.99
2018-12-24T13:35:40.049Z,102814.05
2018-12-24T13:38:09.152Z,102813.56
2018-12-24T13:40:38.097Z,102812.20
2018-12-24T13:43:07.086Z,102818.58
2018-12-24T13:45:35.959Z,102816.06
2018-12-24T13:48:04.964Z,102820.59
2018-12-24T13:50:33.854Z,102818.93
2018-12-24T13:53:02.746Z,102824.81
2018-12-24T13:55:31.644Z,102828.92
2018-12-24T13:58:00.524Z,102833.77
2018-12-24T14:00:29.424Z,102831.88
2018-12-24T14:02:58.311Z,102836.00
2018-12-24T14:05:27.222Z,102837.64
2018-12-24T14:07:56.157Z,102838.17
2018-12-24T14:10:25.125Z,102837.97
2018-12-24T14:12:53.966Z,102842.59
2018-12-24T14:15:22.858Z,102840.95
2018-12-24T14:17:52.818Z,102842.56
2018-12-24T14:20:21.702Z,102849.33
2018-12-24T14:22:50.688Z,102852.20
2018-12-24T14:25:19.503Z,102864.31
2018-12-24T14:27:48.426Z,102866.94
2018-12-24T14:30:17.293Z,102867.98
2018-12-24T14:32:46.209Z,102865.19
2018-12-24T14:35:15.075Z,102859.24
2018-12-24T14:37:44.006Z,102858.55
2018-12-24T14:40:12.881Z,102859.03
2018-12-24T14:42:41.811Z,102861.45
2018-12-24T14:45:10.711Z,102853.23
2018-12-24T14:47:39.717Z,102856.52
2018-12-24T14:50:08.930Z,102852.34
2018-12-24T14:52:37.806Z,102854.39
2018-12-24T14:55:06.918Z,102863.31
2018-12-24T14:57:35.786Z,102865.88
2018-12-24T15:00:05.910Z,102858.61
2018-12-24T15:02:34.807Z,102862.52
2018-12-24T15:05:03.859Z,102877.13
2018-12-24T15:07:32.773Z,102877.91
2018-12-24T15:10:01.698Z,102865.30
2018-12-24T15:12:30.574Z,102875.40
2018-12-24T15:14:59.490Z,102878.69
2018-12-24T15:17:28.408Z,102884.94
2018-12-24T15:19:57.329Z,102873.58
2018-12-24T15:22:26.203Z,102873.23
2018-12-24T15:24:55.094Z,102877.89
2018-12-24T15:27:23.994Z,102882.61
2018-12-24T15:29:52.896Z,102883.66
2018-12-24T15:32:21.795Z,102891.02
2018-12-24T15:34:50.701Z,102907.61
2018-12-24T15:37:19.614Z,102910.53
2018-12-24T15:39:48.518Z,102905.27
2018-12-24T15:42:17.410Z,102892.13
2018-12-24T15:44:46.318Z,102910.31
2018-12-24T15:47:15.210Z,102908.70
2018-12-24T15:49:44.094Z,102920.03
2018-12-24T15:52:13.002Z,102924.48
2018-12-24T15:54:41.872Z,102918.45
2018-12-24T15:57:10.776Z,102931.39
2018-12-24T15:59:39.650Z,102925.56
2018-12-24T16:02:08.534Z,102907.35
2018-12-24T16:04:37.396Z,102914.00
2018-12-24T16:07:06.319Z,102920.35
2018-12-24T16:09:35.277Z,102910.42
2018-12-24T16:12:04.160Z,102914.05
2018-12-24T16:14:33.071Z,102918.66
2018-12-24T16:17:01.943Z,102918.50
2018-12-24T16:19:30.850Z,102917.16
2018-12-24T16:21:59.840Z,102930.88
2018-12-24T16:24:28.743Z,102933.47
2018-12-24T16:26:57.648Z,102936.27
2018-12-24T16:29:26.584Z,102935.69
2018-12-24T16:31:55.478Z,102945.61
2018-12-24T16:34:24.435Z,102953.25
2018-12-24T16:36:53.314Z,102954.80
2018-12-24T16:39:22.219Z,102960.02
2018-12-24T16:41:51.121Z,102961.93
2018-12-24T16:44:20.020Z,102968.14
2018-12-24T16:46:48.956Z,102967.31
2018-12-24T16:49:17.839Z,102971.62
2018-12-24T16:51:46.739Z,102979.08
2018-12-24T16:54:15.618Z,102979.13
2018-12-24T16:56:44.508Z,102980.38
2018-12-24T16:59:13.393Z,102976.44
2018-12-24T17:01:42.304Z,102982.70
2018-12-24T17:04:11.166Z,102984.31
2018-12-24T17:06:40.070Z,102993.92
2018-12-24T17:09:08.955Z,102986.77
2018-12-24T17:11:37.867Z,102990.88
2018-12-24T17:14:06.798Z,102988.73
2018-12-24T17:16:35.676Z,102999.91
2018-12-24T17:19:04.616Z,102993.08
2018-12-24T17:21:33.515Z,103006.16
2018-12-24T17:24:02.396Z,103006.01
2018-12-24T17:26:31.303Z,103020.90
2018-12-24T17:29:00.182Z,103019.08
2018-12-24T17:31:29.059Z,103019.87
2018-12-24T17:33:57.965Z,103020.67
2018-12-24T17:36:26.877Z,103024.46
2018-12-24T17:38:55.772Z,103019.08
2018-12-24T17:41:24.654Z,103016.09
2018-12-24T17:43:53.552Z,103016.19
2018-12-24T17:46:22.416Z,103022.28
2018-12-24T17:48:51.300Z,103020.28
2018-12-24T17:51:20.210Z,103020.95
2018-12-24T17:53:49.131Z,103017.29
2018-12-24T17:56:18.084Z,103023.13
2018-12-24T17:58:46.992Z,103036.56
2018-12-24T18:01:15.856Z,103039.66
2018-12-24T18:03:44.766Z,103042.81
2018-12-24T18:06:13.679Z,103040.11
2018-12-24T18:08:42.550Z,103042.48
2018-12-24T18:11:11.458Z,103039.20
2018-12-24T18:13:40.384Z,103045.36
2018-12-24T18:16:09.328Z,103046.02
2018-12-24T18:18:38.217Z,103043.64
2018-12-24T18:21:07.139Z,103044.19
2018-12-24T18:23:36.027Z,103044.73
2018-12-24T18:26:04.951Z,103041.16
2018-12-24T18:28:33.841Z,103045.66
2018-12-24T18:31:02.754Z,103046.50
2018-12-24T18:33:31.672Z,103044.30
2018-12-24T18:36:00.582Z,103047.09
2018-12-24T18:38:29.500Z,103057.75
2018-12-24T18:40:58.417Z,103061.88
2018-12-24T18:43:27.304Z,103058.80
2018-12-24T18:45:56.188Z,103060.94
2018-12-24T18:48:25.152Z,103062.77
2018-12-24T18:50:53.997Z,103060.49
2018-12-24T18:53:22.894Z,103065.03
2018-12-24T18:55:51.785Z,103059.92
2018-12-24T18:58:20.682Z,103061.59
2018-12-24T19:00:49.570Z,103067.16
2018-12-24T19:03:18.487Z,103073.20
2018-12-24T19:05:47.377Z,103077.33
2018-12-24T19:08:16.296Z,103079.31
2018-12-24T19:10:45.192Z,103086.92
2018-12-24T19:13:14.084Z,103088.48
2018-12-24T19:15:43.057Z,103085.62
2018-12-24T19:18:11.911Z,103088.59
2018-12-24T19:20:40.796Z,103085.02
2018-12-24T19:23:09.694Z,103083.08
2018-12-24T19:25:38.592Z,103082.11
2018-12-24T19:28:07.497Z,103079.64
2018-12-24T19:30:36.392Z,103078.24
2018-12-24T19:33:05.280Z,103076.28
2018-12-24T19:35:34.155Z,103073.64
2018-12-24T19:38:03.039Z,103083.77
2018-12-24T19:40:31.952Z,103082.78
2018-12-24T19:43:00.825Z,103092.85
2018-12-24T19:45:29.740Z,103093.12
2018-12-24T19:47:58.629Z,103099.66
2018-12-24T19:50:27.517Z,103092.38
2018-12-24T19:52:56.422Z,103098.07
2018-12-24T19:55:25.333Z,103099.72
2018-12-24T19:57:54.235Z,103092.49
2018-12-24T20:00:23.128Z,103096.59
2018-12-24T20:02:52.056Z,103095.76
2018-12-24T20:05:20.964Z,103095.89
2018-12-24T20:07:49.848Z,103097.94
2018-12-24T20:10:18.757Z,103098.78
2018-12-24T20:12:47.643Z,103099.44
2018-12-24T20:15:16.539Z,103095.13
2018-12-24T20:17:45.433Z,103095.39
2018-12-24T20:20:14.358Z,103100.92
2018-12-24T20:22:43.266Z,103100.27
2018-12-24T20:25:12.129Z,103103.33
2018-12-24T20:27:41.033Z,103095.83
2018-12-24T20:30:09.949Z,103096.93
2018-12-24T20:32:38.904Z,103096.75
2018-12-24T20:35:07.859Z,103101.53
2018-12-24T20:37:36.749Z,103097.08
2018-12-24T20:40:05.719Z,103095.92
2018-12-24T20:42:34.626Z,103096.80
2018-12-24T20:45:03.506Z,103098.14
2018-12-24T20:47:32.418Z,103097.63
2018-12-24T20:50:01.454Z,103094.25
2018-12-24T20:52:30.186Z,103090.86
2018-12-24T20:54:59.106Z,103092.98
2018-12-24T20:57:28.024Z,103091.41
2018-12-24T20:59:56.951Z,103086.11
2018-12-24T21:02:25.829Z,103086.67
2018-12-24T21:04:54.748Z,103081.11
2018-12-24T21:07:23.633Z,103079.89
2018-12-24T21:09:52.500Z,103075.62
2018-12-24T21:12:21.410Z,103079.02
2018-12-24T21:14:50.338Z,103073.63
2018-12-24T21:17:19.250Z,103085.23
2018-12-24T21:19:48.144Z,103091.22
2018-12-24T21:22:17.022Z,103089.46
2018-12-24T21:24:47.592Z,103092.20
2018-12-24T21:27:16.387Z,103093.73
2018-12-24T21:29:45.293Z,103094.25
2018-12-24T21:32:15.603Z,103082.32
2018-12-24T21:34:44.392Z,103080.05
2018-12-24T21:37:13.258Z,103077.48
2018-12-24T21:39:42.178Z,103070.66
2018-12-24T21:42:11.055Z,103075.45
2018-12-24T21:44:39.995Z,103081.92
2018-12-24T21:47:08.883Z,103081.58
2018-12-24T21:49:37.763Z,103088.54
2018-12-24T21:52:06.692Z,103084.91
2018-12-24T21:54:35.571Z,103091.88
2018-12-24T21:57:07.426Z,103091.95
2018-12-24T21:59:36.319Z,103090.47
2018-12-24T22:02:05.252Z,103090.00
2018-12-24T22:04:34.132Z,103095.17
2018-12-24T22:07:03.003Z,103094.28
2018-12-24T22:09:31.909Z,103096.65
2018-12-24T22:12:00.800Z,103094.03
2018-12-24T22:14:29.664Z,103093.77
2018-12-24T22:16:58.555Z,103097.39
2018-12-24T22:19:27.448Z,103095.42
2018-12-24T22:21:56.314Z,103093.19
2018-12-24T22:24:25.273Z,103092.02
2018-12-24T22:26:54.138Z,103092.02
2018-12-24T22:29:23.031Z,103087.73
2018-12-24T22:31:51.907Z,103092.66
2018-12-24T22:34:20.970Z,103087.80
2018-12-24T22:36:49.857Z,103087.16
2018-12-24T22:39:18.766Z,103087.83
2018-12-24T22:41:47.658Z,103084.50
2018-12-24T22:44:16.537Z,103084.50
2018-12-24T22:46:45.442Z,103091.28
2018-12-24T22:49:14.341Z,103083.81
2018-12-24T22:51:43.238Z,103080.23
2018-12-24T22:54:12.114Z,103079.69
2018-12-24T22:56:42.238Z,103082.99
2018-12-24T22:59:09.964Z,103075.48
2018-12-24T23:01:38.847Z,103080.24
2018-12-24T23:04:07.708Z,103076.02
2018-12-24T23:06:36.634Z,103078.80
2018-12-24T23:09:08.336Z,103071.74
2018-12-24T23:11:37.282Z,103073.71
2018-12-24T23:14:06.222Z,103071.74
2018-12-24T23:16:35.115Z,103067.57
2018-12-24T23:19:04.066Z,103067.05
2018-12-24T23:21:32.987Z,103072.70
2018-12-24T23:24:01.897Z,103069.98
2018-12-24T23:26:30.796Z,103074.80
2018-12-24T23:28:59.713Z,103074.58
2018-12-24T23:31:28.601Z,103075.14
2018-12-24T23:33:57.491Z,103075.50
2018-12-24T23:36:26.357Z,103079.70
2018-12-24T23:38:55.318Z,103080.28
2018-12-24T23:41:24.227Z,103072.57
2018-12-24T23:43:53.135Z,103074.17
2018-12-24T23:46:22.108Z,103067.27
2018-12-24T23:48:57.697Z,103057.70
2018-12-24T23:51:19.831Z,103056.57
2018-12-24T23:53:48.733Z,103056.16
2018-12-24T23:56:17.629Z,103052.17
2018-12-24T23:58:46.517Z,103048.90
